createdAt,value
2022-08-05T00:00:46.345Z,0.00
2022-08-05T00:01:48.983Z,0.00
2022-08-05T00:02:40.502Z,0.00
2022-08-05T00:03:40.418Z,0.00
2022-08-05T00:04:40.409Z,0.00
2022-08-05T00:06:04.822Z,0.00
2022-08-05T00:06:41.389Z,0.00
2022-08-05T00:08:01.047Z,0.00
2022-08-05T00:08:41.361Z,0.00
2022-08-05T00:09:40.353Z,0.00
2022-08-05T00:10:40.368Z,0.00
2022-08-05T00:11:49.057Z,0.00
2022-08-05T00:12:56.581Z,0.00
2022-08-05T00:13:41.311Z,0.00
2022-08-05T00:14:40.296Z,0.00
2022-08-05T00:15:57.685Z,0.00
2022-08-05T00:16:52.712Z,0.00
2022-08-05T00:17:40.265Z,0.00
2022-08-05T00:18:40.262Z,0.00
2022-08-05T00:19:44.159Z,0.00
2022-08-05T00:20:41.236Z,0.00
2022-08-05T00:21:42.691Z,0.00
2022-08-05T00:22:40.226Z,0.00
2022-08-05T00:23:46.915Z,0.00
2022-08-05T00:24:42.550Z,0.00
2022-08-05T00:25:46.069Z,0.00
2022-08-05T00:26:50.730Z,0.00
2022-08-05T00:27:40.452Z,0.00
2022-08-05T00:28:40.151Z,0.00
2022-08-05T00:29:40.129Z,0.00
2022-08-05T00:30:41.040Z,0.00
2022-08-05T00:31:53.862Z,0.00
2022-08-05T00:32:41.183Z,0.00
2022-08-05T00:34:54.151Z,0.00
2022-08-05T00:34:55.924Z,0.00
2022-08-05T00:35:47.770Z,0.00
2022-08-05T00:37:10.275Z,0.00
2022-08-05T00:37:52.886Z,0.00
2022-08-05T00:38:40.034Z,0.00
2022-08-05T00:39:43.959Z,0.00
2022-08-05T00:40:41.016Z,0.00
2022-08-05T00:41:52.217Z,0.00
2022-08-05T00:42:40.022Z,0.00
2022-08-05T00:43:46.567Z,0.00
2022-08-05T00:44:39.978Z,0.00
2022-08-05T00:45:43.768Z,0.00
2022-08-05T00:46:42.571Z,0.00
2022-08-05T00:47:56.926Z,0.00
2022-08-05T00:48:50.610Z,0.00
2022-08-05T00:49:44.665Z,0.00
2022-08-05T00:50:41.376Z,0.00
2022-08-05T00:51:50.806Z,0.00
2022-08-05T00:52:39.889Z,0.00
2022-08-05T00:54:00.820Z,0.00
2022-08-05T00:54:40.872Z,0.00
2022-08-05T00:55:42.833Z,0.00
2022-08-05T00:56:47.030Z,0.00
2022-08-05T00:57:58.655Z,0.00
2022-08-05T00:58:42.599Z,0.00
2022-08-05T00:59:44.218Z,0.00
2022-08-05T01:00:39.871Z,0.00
2022-08-05T01:01:42.685Z,0.00
2022-08-05T01:02:39.790Z,0.00
2022-08-05T01:03:39.790Z,0.00
2022-08-05T01:04:42.187Z,0.00
2022-08-05T01:05:39.756Z,0.00
2022-08-05T01:06:39.735Z,0.00
2022-08-05T01:08:40.389Z,0.00
2022-08-05T01:08:44.310Z,0.00
2022-08-05T01:09:39.714Z,0.00
2022-08-05T01:10:39.707Z,0.00
2022-08-05T01:11:42.685Z,0.00
2022-08-05T01:12:39.694Z,0.00
2022-08-05T01:13:58.765Z,0.00
2022-08-05T01:14:40.659Z,0.00
2022-08-05T01:15:39.646Z,0.00
2022-08-05T01:16:39.637Z,0.00
2022-08-05T01:17:39.860Z,0.00
2022-08-05T01:18:39.609Z,0.00
2022-08-05T01:20:00.995Z,0.00
2022-08-05T01:20:40.590Z,0.00
2022-08-05T01:21:39.586Z,0.00
2022-08-05T01:22:39.687Z,0.00
2022-08-05T01:23:39.561Z,0.00
2022-08-05T01:24:40.607Z,0.00
2022-08-05T01:25:41.555Z,0.00
2022-08-05T01:26:43.541Z,0.00
2022-08-05T01:27:55.475Z,0.00
2022-08-05T01:28:40.958Z,0.00
2022-08-05T01:29:39.505Z,0.00
2022-08-05T01:30:39.495Z,0.00
2022-08-05T01:31:42.733Z,0.00
2022-08-05T01:32:39.466Z,0.00
2022-08-05T01:33:39.458Z,0.00
2022-08-05T01:34:39.455Z,0.00
2022-08-05T01:35:52.981Z,0.00
2022-08-05T01:36:42.223Z,0.00
2022-08-05T01:37:44.307Z,0.00
2022-08-05T01:38:39.408Z,0.00
2022-08-05T01:39:47.211Z,0.00
2022-08-05T01:40:39.408Z,0.00
2022-08-05T01:41:44.514Z,0.00
2022-08-05T01:42:39.378Z,0.00
2022-08-05T01:43:39.430Z,0.00
2022-08-05T01:44:39.390Z,0.00
2022-08-05T01:45:43.065Z,0.00
2022-08-05T01:46:41.424Z,0.00
2022-08-05T01:47:43.317Z,0.00
2022-08-05T01:48:39.309Z,0.00
2022-08-05T01:50:00.329Z,0.00
2022-08-05T01:50:40.279Z,0.00
2022-08-05T01:51:39.270Z,0.00
2022-08-05T01:52:39.255Z,0.00
2022-08-05T01:53:57.517Z,0.00
2022-08-05T01:54:46.129Z,0.00
2022-08-05T01:55:39.226Z,0.00
2022-08-05T01:58:09.266Z,0.00
2022-08-05T01:58:09.489Z,0.00
2022-08-05T01:58:45.023Z,0.00
2022-08-05T01:59:39.173Z,0.00
2022-08-05T02:00:39.173Z,0.00
2022-08-05T02:01:40.185Z,0.00
2022-08-05T02:02:39.155Z,0.00
2022-08-05T02:03:39.138Z,0.00
2022-08-05T02:04:40.597Z,0.00
2022-08-05T02:05:39.125Z,0.00
2022-08-05T02:06:39.345Z,0.00
2022-08-05T02:07:39.099Z,0.00
2022-08-05T02:08:54.811Z,0.00
2022-08-05T02:09:40.098Z,0.00
2022-08-05T02:10:39.059Z,0.00
2022-08-05T02:11:42.478Z,0.00
2022-08-05T02:12:39.057Z,0.00
2022-08-05T02:13:53.824Z,0.00
2022-08-05T02:14:39.029Z,0.00
2022-08-05T02:15:39.008Z,0.00
2022-08-05T02:16:38.996Z,0.00
2022-08-05T02:18:32.611Z,0.00
2022-08-05T02:18:41.957Z,0.00
2022-08-05T02:19:47.446Z,0.00
2022-08-05T02:20:39.279Z,0.00
2022-08-05T02:21:43.403Z,0.00
2022-08-05T02:22:38.945Z,0.00
2022-08-05T02:23:39.166Z,0.00
2022-08-05T02:24:38.919Z,0.00
2022-08-05T02:25:49.428Z,0.00
2022-08-05T02:26:53.919Z,0.00
2022-08-05T02:27:59.252Z,0.00
2022-08-05T02:28:41.775Z,0.00
2022-08-05T02:29:59.914Z,0.00
2022-08-05T02:30:51.812Z,0.00
2022-08-05T02:31:38.855Z,0.00
2022-08-05T02:32:38.833Z,0.00
2022-08-05T02:33:39.404Z,0.00
2022-08-05T02:34:38.816Z,0.00
2022-08-05T02:35:44.918Z,0.00
2022-08-05T02:36:39.806Z,0.00
2022-08-05T02:37:38.768Z,0.00
2022-08-05T02:38:38.770Z,0.00
2022-08-05T02:39:38.830Z,0.00
2022-08-05T02:40:38.741Z,0.00
2022-08-05T02:41:57.574Z,0.00
2022-08-05T02:42:39.755Z,0.00
2022-08-05T02:43:38.712Z,0.00
2022-08-05T02:44:39.708Z,0.00
2022-08-05T02:45:52.658Z,0.00
2022-08-05T02:46:53.789Z,0.00
2022-08-05T02:48:06.641Z,0.00
2022-08-05T02:48:39.662Z,0.00
2022-08-05T02:49:40.691Z,0.00
2022-08-05T02:50:38.642Z,0.00
2022-08-05T02:52:04.340Z,0.00
2022-08-05T02:52:39.646Z,0.00
2022-08-05T02:53:39.693Z,0.00
2022-08-05T02:54:41.461Z,0.00
2022-08-05T02:55:54.608Z,0.00
2022-08-05T02:56:43.514Z,0.00
2022-08-05T02:58:20.218Z,0.00
2022-08-05T02:58:43.731Z,0.00
2022-08-05T02:59:50.446Z,0.00
2022-08-05T03:00:38.535Z,0.00
2022-08-05T03:01:38.568Z,0.00
2022-08-05T03:02:38.523Z,0.00
2022-08-05T03:04:02.075Z,0.00
2022-08-05T03:04:39.496Z,0.00
2022-08-05T03:06:54.112Z,0.00
2022-08-05T03:06:56.651Z,0.00
2022-08-05T03:07:59.298Z,0.00
2022-08-05T03:08:42.341Z,0.00
2022-08-05T03:09:43.970Z,0.00
2022-08-05T03:10:38.433Z,0.00
2022-08-05T03:11:41.421Z,0.00
2022-08-05T03:12:39.422Z,0.00
2022-08-05T03:13:51.854Z,0.00
2022-08-05T03:14:45.871Z,0.00
2022-08-05T03:15:38.372Z,0.00
2022-08-05T03:16:38.364Z,0.00
2022-08-05T03:17:41.631Z,0.00
2022-08-05T03:18:38.354Z,0.00
2022-08-05T03:19:38.335Z,0.00
2022-08-05T03:20:38.314Z,0.00
2022-08-05T03:21:41.316Z,0.00
2022-08-05T03:22:38.305Z,0.00
2022-08-05T03:23:38.408Z,0.00
2022-08-05T03:24:38.284Z,0.00
2022-08-05T03:26:04.628Z,0.00
2022-08-05T03:26:42.298Z,0.00
2022-08-05T03:27:58.949Z,0.00
2022-08-05T03:28:39.243Z,0.00
2022-08-05T03:29:45.796Z,0.00
2022-08-05T03:30:41.043Z,0.00
2022-08-05T03:31:56.772Z,0.00
2022-08-05T03:32:39.200Z,0.00
2022-08-05T03:33:50.933Z,1.00
2022-08-05T03:34:38.177Z,0.00
2022-08-05T03:35:40.924Z,0.00
2022-08-05T03:36:38.181Z,0.00
2022-08-05T03:37:46.325Z,1.00
2022-08-05T03:38:38.190Z,0.00
2022-08-05T03:39:47.282Z,0.00
2022-08-05T03:40:39.245Z,4.00
2022-08-05T03:41:46.734Z,3.00
2022-08-05T03:42:41.853Z,4.00
2022-08-05T03:44:08.972Z,3.00
2022-08-05T03:44:39.013Z,3.00
2022-08-05T03:45:57.254Z,3.00
2022-08-05T03:46:38.999Z,6.00
2022-08-05T03:47:41.295Z,8.00
2022-08-05T03:48:37.975Z,8.00
2022-08-05T03:49:51.566Z,13.00
2022-08-05T03:50:37.986Z,14.00
2022-08-05T03:52:37.324Z,19.00
2022-08-05T03:54:59.334Z,21.00
2022-08-05T03:55:49.827Z,22.00
2022-08-05T03:55:52.347Z,28.00
2022-08-05T03:56:05.472Z,35.00
2022-08-05T03:56:41.885Z,43.00
2022-08-05T03:57:41.801Z,48.00
2022-08-05T03:58:37.869Z,58.00
2022-08-05T03:59:47.286Z,64.00
2022-08-05T04:00:38.991Z,70.00
2022-08-05T04:01:37.955Z,79.00
2022-08-05T04:02:52.299Z,94.00
2022-08-05T04:03:38.817Z,105.00
2022-08-05T04:04:38.858Z,117.00
2022-08-05T04:05:37.795Z,131.00
2022-08-05T04:06:37.782Z,148.00
2022-08-05T04:07:53.182Z,164.00
2022-08-05T04:08:38.765Z,178.00
2022-08-05T04:09:37.784Z,198.00
2022-08-05T04:10:38.755Z,220.00
2022-08-05T04:11:47.645Z,242.00
2022-08-05T04:13:12.071Z,288.00
2022-08-05T04:14:12.044Z,292.00
2022-08-05T04:15:15.578Z,307.00
2022-08-05T04:16:12.023Z,323.00
2022-08-05T04:17:12.000Z,342.00
2022-08-05T04:18:20.548Z,356.00
2022-08-05T04:19:11.981Z,380.00
2022-08-05T04:20:11.990Z,404.00
2022-08-05T04:21:11.960Z,432.00
2022-08-05T04:22:12.972Z,469.00
2022-08-05T04:23:12.569Z,497.00
2022-08-05T04:24:18.741Z,528.00
2022-08-05T04:25:11.925Z,557.00
2022-08-05T04:26:15.917Z,594.00
2022-08-05T04:27:11.937Z,616.00
2022-08-05T04:28:12.942Z,633.00
2022-08-05T04:29:11.885Z,647.00
2022-08-05T04:30:11.877Z,662.00
2022-08-05T04:31:11.858Z,693.00
2022-08-05T04:32:11.897Z,727.00
2022-08-05T04:33:12.856Z,762.00
2022-08-05T04:34:18.526Z,788.00
2022-08-05T04:35:17.741Z,814.00
2022-08-05T04:36:44.672Z,833.00
2022-08-05T04:37:12.887Z,851.00
2022-08-05T04:38:11.782Z,872.00
2022-08-05T04:39:11.881Z,889.00
2022-08-05T04:40:11.951Z,910.00
2022-08-05T04:41:14.758Z,946.00
2022-08-05T04:42:11.762Z,967.00
2022-08-05T04:43:16.633Z,998.00
2022-08-05T04:44:11.720Z,1027.00
2022-08-05T04:45:14.119Z,1051.00
2022-08-05T04:46:12.716Z,1074.00
2022-08-05T04:47:16.978Z,1092.00
2022-08-05T04:48:18.600Z,1087.00
2022-08-05T04:49:14.799Z,1086.00
2022-08-05T04:50:11.867Z,1107.00
2022-08-05T04:51:12.652Z,1131.00
2022-08-05T04:52:11.720Z,1178.00
2022-08-05T04:53:11.624Z,1200.00
2022-08-05T04:54:12.097Z,1229.00
2022-08-05T04:55:14.548Z,1230.00
2022-08-05T04:56:34.299Z,1240.00
2022-08-05T04:57:12.616Z,1261.00
2022-08-05T04:58:12.449Z,1315.00
2022-08-05T04:59:22.072Z,1352.00
2022-08-05T05:00:11.546Z,1373.00
2022-08-05T05:01:11.615Z,1392.00
2022-08-05T05:02:36.742Z,1414.00
2022-08-05T05:03:12.570Z,1439.00
2022-08-05T05:04:11.509Z,1500.00
2022-08-05T05:05:16.692Z,1557.00
2022-08-05T05:06:38.738Z,1607.00
2022-08-05T05:07:12.480Z,1667.00
2022-08-05T05:08:14.425Z,1689.00
2022-08-05T05:09:13.272Z,1754.00
2022-08-05T05:10:11.482Z,1848.00
2022-08-05T05:11:15.307Z,1933.00
2022-08-05T05:12:11.737Z,2009.00
2022-08-05T05:13:11.427Z,2078.00
2022-08-05T05:14:16.193Z,2163.00
2022-08-05T05:15:12.442Z,2272.00
2022-08-05T05:17:11.380Z,2561.00
2022-08-05T05:18:11.364Z,2706.00
2022-08-05T05:19:18.745Z,2881.00
2022-08-05T05:20:11.352Z,2920.00
2022-08-05T05:21:11.345Z,3039.00
2022-08-05T05:22:22.718Z,3137.00
2022-08-05T05:23:19.745Z,3203.00
2022-08-05T05:24:11.305Z,3288.00
2022-08-05T05:25:17.151Z,3353.00
2022-08-05T05:26:14.289Z,3368.00
2022-08-05T05:27:12.285Z,3404.00
2022-08-05T05:28:11.288Z,3446.00
2022-08-05T05:29:14.536Z,3485.00
2022-08-05T05:30:15.729Z,3558.00
2022-08-05T05:31:12.232Z,3575.00
2022-08-05T05:32:12.739Z,3571.00
2022-08-05T05:33:17.156Z,3618.00
2022-08-05T05:34:11.208Z,3712.00
2022-08-05T05:35:11.202Z,3762.00
2022-08-05T05:36:11.180Z,3765.00
2022-08-05T05:37:11.211Z,3692.00
2022-08-05T05:38:13.112Z,3590.00
2022-08-05T05:39:11.216Z,3701.00
2022-08-05T05:40:11.157Z,3890.00
2022-08-05T05:41:14.121Z,3798.00
2022-08-05T05:42:11.157Z,3920.00
2022-08-05T05:43:11.100Z,3812.00
2022-08-05T05:44:35.777Z,3946.00
2022-08-05T05:45:12.081Z,4049.00
2022-08-05T05:46:15.901Z,3819.00
2022-08-05T05:47:23.652Z,3877.00
2022-08-05T05:48:11.056Z,3913.00
2022-08-05T05:49:22.996Z,3960.00
2022-08-05T05:50:11.030Z,4128.00
2022-08-05T05:51:15.812Z,4024.00
2022-08-05T05:52:13.313Z,4324.00
2022-08-05T05:53:22.378Z,4348.00
2022-08-05T05:55:13.263Z,4659.00
2022-08-05T05:56:13.976Z,4910.00
2022-08-05T05:57:23.361Z,5130.00
2022-08-05T05:58:10.959Z,5193.00
2022-08-05T05:59:10.959Z,5249.00
2022-08-05T06:00:10.941Z,5520.00
2022-08-05T06:01:13.093Z,5758.00
2022-08-05T06:02:10.915Z,6116.00
2022-08-05T06:03:40.624Z,6349.00
2022-08-05T06:05:17.004Z,6571.00
2022-08-05T06:06:10.881Z,6526.00
2022-08-05T06:07:10.852Z,6505.00
2022-08-05T06:08:10.841Z,6399.00
2022-08-05T06:09:17.063Z,6344.00
2022-08-05T06:10:11.829Z,6131.00
2022-08-05T06:11:13.856Z,6288.00
2022-08-05T06:12:10.825Z,6085.00
2022-08-05T06:13:10.793Z,6203.00
2022-08-05T06:14:10.773Z,6305.00
2022-08-05T06:15:16.202Z,6230.00
2022-08-05T06:16:28.883Z,6179.00
2022-08-05T06:17:22.202Z,6060.00
2022-08-05T06:18:10.746Z,6068.00
2022-08-05T06:19:10.737Z,5998.00
2022-08-05T06:20:21.477Z,5984.00
2022-08-05T06:21:18.544Z,5912.00
2022-08-05T06:22:10.696Z,5788.00
2022-08-05T06:23:10.679Z,6024.00
2022-08-05T06:24:11.824Z,6387.00
2022-08-05T06:25:24.379Z,7078.00
2022-08-05T06:26:21.198Z,7939.00
2022-08-05T06:27:17.085Z,8441.00
2022-08-05T06:28:21.405Z,8481.00
2022-08-05T06:29:25.559Z,8122.00
2022-08-05T06:30:19.987Z,7696.00
2022-08-05T06:31:11.235Z,7358.00
2022-08-05T06:32:25.825Z,7106.00
2022-08-05T06:33:11.584Z,6697.00
2022-08-05T06:34:11.570Z,6366.00
2022-08-05T06:35:15.561Z,6059.00
2022-08-05T06:36:11.572Z,5920.00
2022-08-05T06:37:10.533Z,5880.00
2022-08-05T06:38:11.696Z,5862.00
2022-08-05T06:39:10.559Z,5940.00
2022-08-05T06:40:10.545Z,6280.00
2022-08-05T06:41:13.499Z,6542.00
2022-08-05T06:42:10.504Z,6640.00
2022-08-05T06:43:59.116Z,6779.00
2022-08-05T06:44:11.464Z,6964.00
2022-08-05T06:45:10.457Z,7074.00
2022-08-05T06:46:11.436Z,7134.00
2022-08-05T06:47:29.952Z,7065.00
2022-08-05T06:48:53.246Z,6928.00
2022-08-05T06:49:12.065Z,6887.00
2022-08-05T06:50:10.399Z,7044.00
2022-08-05T06:51:21.865Z,7128.00
2022-08-05T06:52:37.747Z,4421.00
2022-08-05T06:53:21.626Z,3762.00
2022-08-05T06:54:12.019Z,19342.00
2022-08-05T06:55:10.349Z,9304.00
2022-08-05T06:56:26.741Z,14869.00
2022-08-05T06:57:56.777Z,6546.00
2022-08-05T06:58:20.057Z,4438.00
2022-08-05T06:59:11.972Z,10411.00
2022-08-05T07:00:10.312Z,15353.00
2022-08-05T07:01:11.321Z,10436.00
2022-08-05T07:02:10.276Z,8237.00
2022-08-05T07:03:10.263Z,6464.00
2022-08-05T07:04:10.257Z,6913.00
2022-08-05T07:05:15.420Z,4661.00
2022-08-05T07:06:13.914Z,16178.00
2022-08-05T07:07:10.226Z,10936.00
2022-08-05T07:08:10.819Z,12685.00
2022-08-05T07:09:10.236Z,23025.00
2022-08-05T07:10:10.188Z,11003.00
2022-08-05T07:11:15.206Z,3874.00
2022-08-05T07:12:10.197Z,12930.00
2022-08-05T07:13:10.167Z,24237.00
2022-08-05T07:14:15.376Z,20624.00
2022-08-05T07:15:11.148Z,13838.00
2022-08-05T07:16:12.063Z,14170.00
2022-08-05T07:18:00.619Z,12451.00
2022-08-05T07:18:14.650Z,12925.00
2022-08-05T07:19:11.126Z,13110.00
2022-08-05T07:20:32.429Z,13868.00
2022-08-05T07:21:11.083Z,13654.00
2022-08-05T07:22:10.074Z,13681.00
2022-08-05T07:23:10.050Z,13921.00
2022-08-05T07:24:11.488Z,14126.00
2022-08-05T07:25:22.603Z,13791.00
2022-08-05T07:26:13.275Z,13738.00
2022-08-05T07:27:10.034Z,12631.00
2022-08-05T07:28:11.980Z,12204.00
2022-08-05T07:29:09.992Z,12918.00
2022-08-05T07:30:27.321Z,12821.00
2022-08-05T07:31:10.974Z,8628.00
2022-08-05T07:32:09.965Z,18186.00
2022-08-05T07:33:15.534Z,18565.00
2022-08-05T07:34:13.876Z,14528.00
2022-08-05T07:36:05.300Z,15962.00
2022-08-05T07:36:20.849Z,15319.00
2022-08-05T07:37:11.531Z,12899.00
2022-08-05T07:38:12.425Z,13087.00
2022-08-05T07:39:24.807Z,11433.00
2022-08-05T07:40:31.429Z,11540.00
2022-08-05T07:42:09.013Z,10210.00
2022-08-05T07:42:13.712Z,15046.00
2022-08-05T07:43:20.148Z,15275.00
2022-08-05T07:44:18.492Z,13637.00
2022-08-05T07:45:09.830Z,14781.00
2022-08-05T07:46:24.805Z,10223.00
2022-08-05T07:47:10.822Z,24277.00
2022-08-05T07:48:09.800Z,8488.00
2022-08-05T07:49:09.810Z,30375.00
2022-08-05T07:50:09.781Z,15444.00
2022-08-05T07:51:14.413Z,14081.00
2022-08-05T07:52:09.829Z,22023.00
2022-08-05T07:53:09.752Z,15507.00
2022-08-05T07:54:10.507Z,12411.00
2022-08-05T07:55:16.030Z,10689.00
2022-08-05T07:56:39.217Z,9118.00
2022-08-05T07:57:16.969Z,19931.00
2022-08-05T07:58:55.059Z,15002.00
2022-08-05T07:59:10.687Z,11932.00
2022-08-05T08:00:11.579Z,18390.00
2022-08-05T08:01:12.272Z,19862.00
2022-08-05T08:02:10.607Z,18524.00
2022-08-05T08:03:13.838Z,14127.00
2022-08-05T08:04:09.639Z,12070.00
2022-08-05T08:05:09.622Z,12111.00
2022-08-05T08:06:09.607Z,13439.00
2022-08-05T08:07:09.618Z,7272.00
2022-08-05T08:08:12.459Z,10863.00
2022-08-05T08:09:09.585Z,72769.00
2022-08-05T08:10:09.574Z,77968.00
2022-08-05T08:11:13.702Z,66097.00
2022-08-05T08:12:27.542Z,23039.00
2022-08-05T08:13:11.565Z,15630.00
2022-08-05T08:14:10.539Z,20258.00
2022-08-05T08:15:15.277Z,23704.00
2022-08-05T08:16:49.986Z,21617.00
2022-08-05T08:17:10.522Z,19864.00
2022-08-05T08:18:14.315Z,17749.00
2022-08-05T08:19:09.474Z,25419.00
2022-08-05T08:20:43.307Z,18325.00
2022-08-05T08:21:15.786Z,8537.00
2022-08-05T08:22:09.445Z,65926.00
2022-08-05T08:23:11.675Z,11097.00
2022-08-05T08:24:13.775Z,33629.00
2022-08-05T08:25:15.768Z,15296.00
2022-08-05T08:26:13.409Z,25108.00
2022-08-05T08:27:10.407Z,29624.00
2022-08-05T08:28:18.390Z,22354.00
2022-08-05T08:29:45.466Z,19610.00
2022-08-05T08:30:29.953Z,21803.00
2022-08-05T08:31:14.592Z,22077.00
2022-08-05T08:32:10.937Z,18631.00
2022-08-05T08:33:09.341Z,17106.00
2022-08-05T08:34:09.327Z,15181.00
2022-08-05T08:35:13.676Z,13421.00
2022-08-05T08:37:10.292Z,8763.00
2022-08-05T08:38:11.632Z,8817.00
2022-08-05T08:39:15.414Z,61833.00
2022-08-05T08:40:09.265Z,5546.00
2022-08-05T08:41:14.007Z,26407.00
2022-08-05T08:42:22.467Z,16563.00
2022-08-05T08:45:16.608Z,11436.00
2022-08-05T08:45:17.147Z,12976.00
2022-08-05T08:45:23.433Z,16986.00
2022-08-05T08:46:10.330Z,5673.00
2022-08-05T08:47:21.757Z,79302.00
2022-08-05T08:48:23.105Z,78444.00
2022-08-05T08:50:23.287Z,78672.00
2022-08-05T08:50:31.671Z,79508.00
2022-08-05T08:52:02.097Z,80089.00
2022-08-05T08:52:13.670Z,80539.00
2022-08-05T08:53:12.470Z,80861.00
2022-08-05T08:55:13.166Z,8428.00
2022-08-05T08:56:12.104Z,72653.00
2022-08-05T08:57:11.314Z,10298.00
2022-08-05T08:58:09.082Z,80941.00
2022-08-05T08:59:14.820Z,80877.00
2022-08-05T09:00:09.074Z,80152.00
2022-08-05T09:01:11.000Z,78827.00
2022-08-05T09:02:09.055Z,77137.00
2022-08-05T09:03:09.035Z,76719.00
2022-08-05T09:04:10.611Z,78020.00
2022-08-05T09:05:17.977Z,80463.00
2022-08-05T09:06:11.566Z,80950.00
2022-08-05T09:07:19.386Z,80077.00
2022-08-05T09:08:09.837Z,72565.00
2022-08-05T09:09:08.971Z,63274.00
2022-08-05T09:10:08.955Z,19257.00
2022-08-05T09:11:13.693Z,16113.00
2022-08-05T09:12:19.882Z,16030.00
2022-08-05T09:13:08.927Z,24284.00
2022-08-05T09:14:54.289Z,14111.00
2022-08-05T09:15:09.907Z,7277.00
2022-08-05T09:16:09.126Z,80413.00
2022-08-05T09:17:09.424Z,79228.00
2022-08-05T09:18:09.877Z,79144.00
2022-08-05T09:19:08.869Z,79392.00
2022-08-05T09:20:08.871Z,79596.00
2022-08-05T09:21:11.777Z,79612.00
2022-08-05T09:22:23.427Z,79298.00
2022-08-05T09:23:09.832Z,78718.00
2022-08-05T09:24:08.822Z,78577.00
2022-08-05T09:25:13.830Z,78775.00
2022-08-05T09:26:20.493Z,79169.00
2022-08-05T09:27:08.811Z,79813.00
2022-08-05T09:28:08.805Z,80168.00
2022-08-05T09:29:09.095Z,80425.00
2022-08-05T09:30:08.811Z,80434.00
2022-08-05T09:31:43.805Z,80201.00
2022-08-05T09:32:41.398Z,80270.00
2022-08-05T09:33:09.741Z,80711.00
2022-08-05T09:34:09.842Z,81190.00
2022-08-05T09:35:08.719Z,81450.00
2022-08-05T09:36:11.734Z,81329.00
2022-08-05T09:37:14.991Z,80697.00
2022-08-05T09:38:12.093Z,79821.00
2022-08-05T09:39:18.255Z,78930.00
2022-08-05T09:40:08.680Z,78086.00
2022-08-05T09:41:11.668Z,77973.00
2022-08-05T09:42:08.658Z,79030.00
2022-08-05T09:43:09.677Z,80718.00
2022-08-05T09:44:08.620Z,81600.00
2022-08-05T09:46:04.719Z,81458.00
2022-08-05T09:46:09.612Z,80644.00
2022-08-05T09:47:10.264Z,80070.00
2022-08-05T09:48:08.585Z,80205.00
2022-08-05T09:49:19.056Z,80522.00
2022-08-05T09:50:08.562Z,81169.00
2022-08-05T09:51:14.871Z,81657.00
2022-08-05T09:52:08.537Z,81794.00
2022-08-05T09:53:09.115Z,81774.00
2022-08-05T09:54:10.064Z,82043.00
2022-08-05T09:55:59.051Z,81813.00
2022-08-05T09:56:13.296Z,80976.00
2022-08-05T09:57:23.457Z,80462.00
2022-08-05T09:58:08.479Z,79719.00
2022-08-05T09:59:08.477Z,79323.00
2022-08-05T10:00:08.458Z,79883.00
2022-08-05T10:01:15.421Z,80504.00
2022-08-05T10:02:09.491Z,80890.00
2022-08-05T10:03:08.494Z,80995.00
2022-08-05T10:04:10.403Z,81307.00
2022-08-05T10:05:08.430Z,82092.00
2022-08-05T10:06:15.451Z,82009.00
2022-08-05T10:07:20.038Z,81929.00
2022-08-05T10:08:35.947Z,82031.00
2022-08-05T10:09:09.374Z,81287.00
2022-08-05T10:10:15.103Z,81300.00
2022-08-05T10:11:12.355Z,81923.00
2022-08-05T10:12:30.352Z,81737.00
2022-08-05T10:13:09.677Z,81286.00
2022-08-05T10:14:08.314Z,81332.00
2022-08-05T10:15:08.326Z,82180.00
2022-08-05T10:16:08.304Z,81662.00
2022-08-05T10:17:08.296Z,81143.00
2022-08-05T10:18:09.282Z,80608.00
2022-08-05T10:19:09.409Z,80689.00
2022-08-05T10:20:10.100Z,81850.00
2022-08-05T10:21:11.983Z,82046.00
2022-08-05T10:22:09.029Z,80992.00
2022-08-05T10:23:22.112Z,80156.00
2022-08-05T10:24:09.359Z,79646.00
2022-08-05T10:25:08.222Z,79471.00
2022-08-05T10:26:13.826Z,79783.00
2022-08-05T10:27:08.266Z,79967.00
2022-08-05T10:28:13.166Z,80430.00
2022-08-05T10:29:09.187Z,81202.00
2022-08-05T10:31:20.685Z,82418.00
2022-08-05T10:32:50.555Z,80028.00
2022-08-05T10:32:54.992Z,78616.00
2022-08-05T10:33:14.712Z,78855.00
2022-08-05T10:34:08.333Z,79793.00
2022-08-05T10:35:08.115Z,80593.00
2022-08-05T10:36:08.105Z,81271.00
2022-08-05T10:37:08.098Z,81661.00
2022-08-05T10:38:08.388Z,81365.00
2022-08-05T10:39:10.418Z,80606.00
2022-08-05T10:40:17.814Z,79245.00
2022-08-05T10:41:12.362Z,79600.00
2022-08-05T10:42:08.059Z,81073.00
2022-08-05T10:43:08.029Z,82234.00
2022-08-05T10:44:08.046Z,81982.00
2022-08-05T10:45:20.891Z,81538.00
2022-08-05T10:46:09.007Z,81570.00
2022-08-05T10:47:26.271Z,81689.00
2022-08-05T10:48:31.654Z,82137.00
2022-08-05T10:49:10.515Z,82161.00
2022-08-05T10:50:22.363Z,82324.00
2022-08-05T10:51:22.164Z,81164.00
2022-08-05T10:52:10.379Z,78770.00
2022-08-05T10:53:07.961Z,76818.00
2022-08-05T10:54:28.282Z,76436.00
2022-08-05T10:55:08.913Z,63590.00
2022-08-05T10:56:21.176Z,23317.00
2022-08-05T10:57:07.914Z,6614.00
2022-08-05T10:58:07.885Z,64820.00
2022-08-05T10:59:12.520Z,7464.00
2022-08-05T11:00:17.970Z,64710.00
2022-08-05T11:01:07.866Z,8300.00
2022-08-05T11:02:14.721Z,72493.00
2022-08-05T11:03:24.646Z,65386.00
2022-08-05T11:04:08.827Z,20882.00
2022-08-05T11:05:07.837Z,13836.00
2022-08-05T11:06:08.272Z,25825.00
2022-08-05T11:07:07.799Z,17276.00
2022-08-05T11:08:33.674Z,16135.00
2022-08-05T11:09:08.780Z,11332.00
2022-08-05T11:10:09.924Z,8851.00
2022-08-05T11:11:16.551Z,65617.00
2022-08-05T11:12:07.788Z,11582.00
2022-08-05T11:13:07.755Z,38546.00
2022-08-05T11:14:07.731Z,33099.00
2022-08-05T11:15:19.227Z,9463.00
2022-08-05T11:16:07.722Z,75642.00
2022-08-05T11:17:56.776Z,75486.00
2022-08-05T11:18:11.617Z,70200.00
2022-08-05T11:20:11.435Z,62584.00
2022-08-05T11:20:11.436Z,11247.00
2022-08-05T11:21:11.777Z,21592.00
2022-08-05T11:22:07.645Z,14956.00
2022-08-05T11:23:09.003Z,19037.00
2022-08-05T11:24:14.784Z,11752.00
2022-08-05T11:25:16.862Z,22889.00
2022-08-05T11:26:11.607Z,5725.00
2022-08-05T11:27:07.661Z,10886.00
2022-08-05T11:28:07.769Z,75216.00
2022-08-05T11:29:12.973Z,75644.00
2022-08-05T11:30:07.699Z,75600.00
2022-08-05T11:31:07.573Z,75710.00
2022-08-05T11:32:07.548Z,75780.00
2022-08-05T11:33:07.541Z,75587.00
2022-08-05T11:34:08.095Z,76422.00
2022-08-05T11:35:07.522Z,75663.00
2022-08-05T11:36:08.967Z,75704.00
2022-08-05T11:38:26.768Z,75963.00
2022-08-05T11:38:29.748Z,79789.00
2022-08-05T11:39:08.539Z,77542.00
2022-08-05T11:40:07.519Z,75763.00
2022-08-05T11:41:36.839Z,75579.00
2022-08-05T11:42:08.477Z,76532.00
2022-08-05T11:43:07.447Z,78192.00
2022-08-05T11:44:08.550Z,78489.00
2022-08-05T11:45:23.093Z,78391.00
2022-08-05T11:46:14.990Z,78606.00
2022-08-05T11:47:13.973Z,77697.00
2022-08-05T11:48:07.429Z,75824.00
2022-08-05T11:49:07.986Z,75819.00
2022-08-05T11:50:07.554Z,75989.00
2022-08-05T11:51:07.367Z,78231.00
2022-08-05T11:52:11.918Z,80934.00
2022-08-05T11:53:09.821Z,78486.00
2022-08-05T11:54:07.346Z,77958.00
2022-08-05T11:55:10.701Z,78253.00
2022-08-05T11:56:11.270Z,79070.00
2022-08-05T11:57:08.458Z,80933.00
2022-08-05T11:58:11.846Z,79882.00
2022-08-05T11:59:13.892Z,75999.00
2022-08-05T12:00:07.284Z,75991.00
2022-08-05T12:01:08.367Z,76027.00
2022-08-05T12:02:07.263Z,75946.00
2022-08-05T12:03:08.371Z,77655.00
2022-08-05T12:04:07.235Z,78857.00
2022-08-05T12:05:17.939Z,79564.00
2022-08-05T12:06:10.128Z,80105.00
2022-08-05T12:07:07.214Z,79903.00
2022-08-05T12:08:09.978Z,79637.00
2022-08-05T12:09:07.193Z,78856.00
2022-08-05T12:10:09.540Z,78685.00
2022-08-05T12:11:10.178Z,79022.00
2022-08-05T12:12:07.209Z,78632.00
2022-08-05T12:13:16.428Z,78124.00
2022-08-05T12:14:08.151Z,77761.00
2022-08-05T12:15:07.681Z,77158.00
2022-08-05T12:16:14.146Z,76555.00
2022-08-05T12:17:22.697Z,76553.00
2022-08-05T12:18:11.062Z,76309.00
2022-08-05T12:19:08.193Z,75868.00
2022-08-05T12:20:26.939Z,75959.00
2022-08-05T12:21:08.073Z,76022.00
2022-08-05T12:22:09.595Z,75918.00
2022-08-05T12:23:07.084Z,75650.00
2022-08-05T12:24:07.585Z,75581.00
2022-08-05T12:25:07.035Z,75620.00